Terminal Aerodrome Forecast
Issued by NWS

Home | Current Version | Previous Version | Text Only | Print | Product List | Glossary On
Versions: 1 2 3 4 5 6 7 8 9 10 11 12 13 14 15 16 17 18 19 20
707
FTUS42 KTAE 171235 AAA
TAFVLD
TAF AMD
KVLD 171235Z 1713/1812 VRB04KT P6SM SCT250
     FM171800 27006KT P6SM TS BKN050CB
     FM180100 27004KT P6SM SCT250=

USA.gov is the U.S. government's official web portal to all federal, state and local government web resources and services.